PVF weather

Placerville Airport
Placerville, California, United States

Public forecast

Using degrees Fahrenheit for public forecast. Weather courtesy of forecast.io.

METAR (pilot weather report)

Retrieved 2019/08/24 03:35 UTC (0 seconds ago):

KPVF 240335Z AUTO 23004KT 10SM CLR 26/10 A2992 RMK AO1

TAF (pilot weather forecast)

Forecast is more than 12 hours old.

Closest forecast is Sacramento Mather Airport, 27.5 nm (51.0 km) WSW. Retrieved 2019/08/23 00:34 UTC (1 day ago):

TAF KMHR 232332Z 2400/2424 24010KT P6SM SKC FM240600 16007KT P6SM FEW250 FM241800 21008KT P6SM SKC FM242100 24009KT P6SM SKC